Time;durP1;ratioP1;P1;durP2;ratioP2;P2;SDS_P1;SDS_P2;PMS_P1;PMS_P2;Temp;Humidity;BMP_temperature;BMP_pressure;BME280_temperature;BME280_humidity;BME280_pressure;Samples;Min_cycle;Max_cycle;Signal;HPM_P1;HPM_P2
2023/12/04 00:00:32;;;;;;;;;8.75;8.00;;;;;5.32;46.86;100373.22;4935141;28;72006;-64
2023/12/04 00:02:57;;;;;;;;;14.75;8.50;;;;;5.33;47.15;100364.59;4939202;28;69561;-64
2023/12/04 00:05:22;;;;;;;;;11.00;7.25;;;;;5.33;47.12;100362.00;4949356;28;45343;-64
2023/12/04 00:07:48;;;;;;;;;11.25;8.00;;;;;5.33;47.17;100343.81;4940474;28;75762;-64
2023/12/04 00:10:13;;;;;;;;;12.75;9.00;;;;;5.36;47.17;100339.47;4939925;28;45335;-63
2023/12/04 00:12:39;;;;;;;;;12.50;9.50;;;;;5.35;46.98;100337.75;4940861;28;45295;-64
2023/12/04 00:15:04;;;;;;;;;8.75;6.50;;;;;5.36;46.95;100332.53;4940349;28;61699;-64
2023/12/04 00:17:30;;;;;;;;;11.00;8.00;;;;;5.36;46.95;100326.50;4934766;28;46414;-63
2023/12/04 00:19:55;;;;;;;;;13.00;7.00;;;;;5.37;47.42;100317.84;4940722;28;45200;-62
2023/12/04 00:22:20;;;;;;;;;13.25;7.00;;;;;5.38;47.00;100310.00;4940665;28;45462;-63
2023/12/04 00:24:46;;;;;;;;;11.75;8.00;;;;;5.36;46.77;100314.38;4938638;28;54629;-63
2023/12/04 00:27:11;;;;;;;;;10.00;4.25;;;;;5.33;46.60;100307.50;4941629;28;46218;-63
2023/12/04 00:29:37;;;;;;;;;8.75;7.50;;;;;5.35;46.80;100297.09;4946712;28;45371;-63
2023/12/04 00:32:02;;;;;;;;;13.00;7.25;;;;;5.36;47.04;100295.38;4939517;28;69150;-63
2023/12/04 00:34:28;;;;;;;;;9.50;8.25;;;;;5.36;46.93;100291.03;4939418;28;45414;-63
2023/12/04 00:36:53;;;;;;;;;9.00;8.00;;;;;5.35;47.03;100297.09;4940402;28;45896;-64
2023/12/04 00:39:18;;;;;;;;;11.25;6.50;;;;;5.38;47.10;100297.03;4940697;28;45233;-64
2023/12/04 00:41:44;;;;;;;;;10.00;6.75;;;;;5.40;47.00;100292.72;4941789;28;65243;-63
2023/12/04 00:44:09;;;;;;;;;8.50;6.00;;;;;5.41;46.84;100285.78;4947714;28;45242;-63
2023/12/04 00:46:34;;;;;;;;;9.00;7.50;;;;;5.43;47.17;100292.66;4943012;28;54734;-62
2023/12/04 00:49:00;;;;;;;;;11.25;6.00;;;;;5.44;47.25;100277.97;4942211;28;62671;-62
2023/12/04 00:51:26;;;;;;;;;12.25;8.25;;;;;5.46;47.25;100277.06;4942693;28;65016;-64
2023/12/04 00:53:51;;;;;;;;;11.25;8.75;;;;;5.46;47.11;100261.47;4943134;28;45548;-64
2023/12/04 00:56:18;;;;;;;;;8.50;6.75;;;;;5.48;47.30;100256.28;4947394;28;66907;-64
2023/12/04 00:58:44;;;;;;;;;7.00;6.00;;;;;5.46;47.13;100245.91;4943088;28;45370;-64
2023/12/04 01:01:09;;;;;;;;;10.50;6.50;;;;;5.49;47.24;100242.44;4944062;28;45334;-64
2023/12/04 01:03:34;;;;;;;;;11.25;6.75;;;;;5.50;47.16;100231.16;4940736;28;70633;-64
2023/12/04 01:05:59;;;;;;;;;7.50;5.25;;;;;5.53;47.25;100225.94;4942953;28;74748;-64
2023/12/04 01:08:25;;;;;;;;;11.50;6.25;;;;;5.55;47.35;100238.88;4959706;28;45326;-62
2023/12/04 01:10:50;;;;;;;;;14.75;8.50;;;;;5.58;47.40;100226.72;4939579;28;69148;-64
2023/12/04 01:13:15;;;;;;;;;9.50;7.50;;;;;5.63;47.49;100229.22;4942515;28;45541;-62
2023/12/04 01:15:42;;;;;;;;;10.25;5.50;;;;;5.64;47.42;100215.38;4942058;28;72609;-63
2023/12/04 01:18:08;;;;;;;;;8.75;7.25;;;;;5.68;47.38;100214.44;4943231;28;45544;-63
2023/12/04 01:20:34;;;;;;;;;7.75;4.50;;;;;5.73;47.31;100201.41;4949896;28;69428;-62
2023/12/04 01:22:59;;;;;;;;;14.25;8.00;;;;;5.75;47.28;100192.69;4945317;28;45227;-63
2023/12/04 01:25:24;;;;;;;;;9.00;4.00;;;;;5.77;47.23;100192.69;4957641;28;73787;-63
2023/12/04 01:27:50;;;;;;;;;6.50;4.00;;;;;5.78;47.20;100184.88;4941965;28;62143;-63
2023/12/04 01:30:15;;;;;;;;;7.25;6.50;;;;;5.78;47.15;100177.09;4942051;28;61290;-64
2023/12/04 01:32:40;;;;;;;;;13.00;6.25;;;;;5.80;46.96;100175.31;4943262;28;45503;-63
2023/12/04 01:35:06;;;;;;;;;7.00;7.00;;;;;5.80;47.17;100164.06;4942410;28;53656;-62
2023/12/04 01:37:32;;;;;;;;;8.75;6.25;;;;;5.81;47.28;100160.63;4942297;28;45298;-64
2023/12/04 01:39:57;;;;;;;;;8.25;6.00;;;;;5.81;47.36;100160.63;4941068;28;65316;-64
2023/12/04 01:42:22;;;;;;;;;9.50;4.50;;;;;5.83;47.05;100164.88;4942385;28;56621;-64
2023/12/04 01:44:48;;;;;;;;;11.00;7.00;;;;;5.87;47.46;100171.72;4941422;28;45416;-63
2023/12/04 01:47:13;;;;;;;;;8.75;5.00;;;;;5.85;47.05;100170.91;4940257;28;70155;-64
2023/12/04 01:49:39;;;;;;;;;10.00;7.50;;;;;5.84;47.02;100174.41;4936455;28;69730;-64
2023/12/04 01:52:05;;;;;;;;;8.50;6.50;;;;;5.83;47.14;100171.81;4942765;28;45305;-66
2023/12/04 01:54:31;;;;;;;;;6.25;4.00;;;;;5.80;46.88;100169.28;4941638;28;46002;-64
2023/12/04 01:56:57;;;;;;;;;12.50;7.00;;;;;5.81;47.09;100155.41;4947312;28;68564;-64
2023/12/04 01:59:22;;;;;;;;;8.75;6.00;;;;;5.78;47.10;100145.06;4946216;28;45303;-63
2023/12/04 02:01:48;;;;;;;;;6.25;4.00;;;;;5.76;47.24;100145.09;4939123;28;69588;-63
2023/12/04 02:04:13;;;;;;;;;11.00;7.00;;;;;5.78;47.32;100151.13;4938015;28;75384;-63
2023/12/04 02:06:40;;;;;;;;;6.00;6.00;;;;;5.79;47.12;100154.56;4940230;28;71600;-63
2023/12/04 02:09:06;;;;;;;;;10.25;6.00;;;;;5.80;47.37;100159.72;4942213;28;45500;-62
2023/12/04 02:11:32;;;;;;;;;9.25;7.00;;;;;5.81;47.33;100161.47;4941039;28;45534;-63
2023/12/04 02:13:57;;;;;;;;;5.00;3.75;;;;;5.84;47.40;100176.13;4942088;28;45492;-63
2023/12/04 02:16:25;;;;;;;;;8.00;8.00;;;;;5.81;47.34;100164.06;4945844;28;51569;-63
2023/12/04 02:18:50;;;;;;;;;11.00;6.00;;;;;5.84;47.45;100166.63;4937545;28;45254;-63
2023/12/04 02:21:16;;;;;;;;;9.00;8.00;;;;;5.87;47.31;100157.91;4933709;28;69077;-62
2023/12/04 02:23:41;;;;;;;;;8.50;4.50;;;;;5.86;47.42;100157.06;4938603;28;46067;-64
2023/12/04 02:26:14;;;;;;;;;9.25;7.25;;;;;5.88;47.50;100150.09;4940706;28;45484;-64
2023/12/04 02:28:40;;;;;;;;;9.50;6.00;;;;;5.88;47.44;100139.69;4940627;28;45382;-64
2023/12/04 02:31:06;;;;;;;;;7.00;6.25;;;;;5.90;47.51;100147.47;4940788;28;73081;-64
2023/12/04 02:33:33;;;;;;;;;11.00;8.00;;;;;5.89;47.43;100148.34;4923891;28;46968;-64
2023/12/04 02:35:59;;;;;;;;;8.50;6.00;;;;;5.87;47.50;100148.34;4939418;28;73316;-64
2023/12/04 02:38:25;;;;;;;;;9.00;6.00;;;;;5.87;47.59;100145.75;4940022;28;57686;-63
2023/12/04 02:40:50;;;;;;;;;9.25;6.00;;;;;5.89;47.65;100156.13;4940537;28;45497;-64
2023/12/04 02:43:16;;;;;;;;;3.50;3.50;;;;;5.90;47.76;100160.44;4945411;28;71686;-64
2023/12/04 02:45:41;;;;;;;;;9.00;7.25;;;;;5.93;47.68;100175.97;4939556;28;67559;-64
2023/12/04 02:48:07;;;;;;;;;10.00;8.25;;;;;5.94;47.59;100151.72;4941301;28;57119;-64
2023/12/04 02:50:32;;;;;;;;;7.25;6.50;;;;;5.96;47.69;100152.56;4941765;28;45548;-64
2023/12/04 02:52:57;;;;;;;;;8.00;7.25;;;;;5.96;47.85;100144.78;4938426;28;71036;-64
2023/12/04 02:55:23;;;;;;;;;9.00;8.00;;;;;5.95;47.83;100142.16;4941713;28;45534;-63
2023/12/04 02:57:48;;;;;;;;;7.25;6.50;;;;;5.95;47.67;100139.56;4941575;28;45322;-64
2023/12/04 03:00:14;;;;;;;;;7.25;6.25;;;;;5.94;47.72;100128.34;4939530;28;56171;-63
2023/12/04 03:02:39;;;;;;;;;8.00;6.50;;;;;5.97;47.85;100124.88;4941458;28;45488;-63
2023/12/04 03:05:04;;;;;;;;;7.75;7.25;;;;;5.98;47.97;100111.00;4940703;28;54464;-63
2023/12/04 03:07:30;;;;;;;;;17.75;7.00;;;;;5.96;47.88;100110.16;4940152;28;45373;-63
2023/12/04 03:09:55;;;;;;;;;11.00;7.50;;;;;5.93;48.08;100100.66;4941622;28;62223;-62
2023/12/04 03:12:20;;;;;;;;;9.00;7.00;;;;;5.94;48.16;100089.38;4940807;28;70940;-62
2023/12/04 03:14:46;;;;;;;;;3.50;3.50;;;;;5.93;48.12;100089.41;4942827;28;73333;-62
2023/12/04 03:17:11;;;;;;;;;6.25;5.50;;;;;5.94;48.13;100083.34;4941153;28;45550;-62
2023/12/04 03:19:36;;;;;;;;;9.00;6.00;;;;;5.95;47.99;100069.47;4939568;28;64236;-62
2023/12/04 03:22:02;;;;;;;;;9.00;7.00;;;;;6.00;48.14;100080.66;4930372;28;75130;-62
2023/12/04 03:24:27;;;;;;;;;6.50;2.25;;;;;6.03;48.26;100058.06;4940685;28;45256;-62
2023/12/04 03:26:52;;;;;;;;;10.00;4.00;;;;;6.05;48.29;100061.50;4938612;28;59153;-63
2023/12/04 03:29:18;;;;;;;;;11.67;9.00;;;;;6.05;48.49;100065.84;4940233;28;45380;-63
2023/12/04 03:31:43;;;;;;;;;12.25;9.25;;;;;6.05;48.32;100060.66;4940705;28;45468;-63
2023/12/04 03:34:08;;;;;;;;;10.50;8.00;;;;;6.06;48.59;100052.81;4941935;28;45413;-63
2023/12/04 03:36:34;;;;;;;;;11.00;7.00;;;;;6.06;48.42;100060.63;4941888;28;63880;-63
2023/12/04 03:38:59;;;;;;;;;8.25;5.50;;;;;6.06;48.62;100065.81;4939357;28;45701;-63
2023/12/04 03:41:25;;;;;;;;;7.50;7.50;;;;;6.03;48.74;100060.66;4940478;28;53015;-63
2023/12/04 03:43:50;;;;;;;;;8.00;4.50;;;;;6.02;48.89;100063.28;4940258;28;64871;-63
2023/12/04 03:46:15;;;;;;;;;7.00;4.00;;;;;6.01;48.73;100049.47;4939716;28;55485;-63
2023/12/04 03:48:41;;;;;;;;;11.00;5.50;;;;;6.01;48.99;100046.88;4940432;28;49753;-63
2023/12/04 03:51:06;;;;;;;;;8.25;6.00;;;;;6.03;49.01;100039.88;4935848;28;62383;-63
2023/12/04 03:53:32;;;;;;;;;7.75;6.00;;;;;6.04;49.03;100043.38;4947960;28;45241;-63
2023/12/04 03:56:00;;;;;;;;;9.75;7.50;;;;;6.06;49.34;100046.78;4939624;28;46125;-63
2023/12/04 03:58:25;;;;;;;;;7.75;4.50;;;;;6.04;49.48;100038.19;4940029;28;72128;-64
2023/12/04 04:00:51;;;;;;;;;9.00;6.50;;;;;6.05;49.72;100042.47;4936862;28;67828;-62
2023/12/04 04:03:16;;;;;;;;;6.75;6.75;;;;;6.06;50.13;100051.97;4941194;28;69734;-62
2023/12/04 04:05:41;;;;;;;;;7.00;6.25;;;;;6.04;50.35;100038.19;4940426;28;70314;-61
2023/12/04 04:08:07;;;;;;;;;8.00;4.75;;;;;6.03;50.52;100041.63;4925388;28;67066;-63
2023/12/04 04:10:33;;;;;;;;;8.75;7.00;;;;;5.99;50.83;100045.19;4942409;28;46180;-63
2023/12/04 04:12:58;;;;;;;;;9.50;8.25;;;;;5.96;51.06;100040.06;4940424;28;45259;-63
2023/12/04 04:15:24;;;;;;;;;14.25;8.00;;;;;5.94;51.65;100042.63;4939892;28;45955;-63
2023/12/04 04:17:49;;;;;;;;;11.25;7.50;;;;;5.92;51.81;100039.22;4934329;28;73497;-63
2023/12/04 04:20:14;;;;;;;;;7.00;6.75;;;;;5.92;52.09;100039.22;4940893;28;55123;-63
2023/12/04 04:22:40;;;;;;;;;7.25;5.00;;;;;5.94;52.42;100034.84;4943410;28;46553;-63
2023/12/04 04:25:09;;;;;;;;;8.50;5.00;;;;;5.95;52.64;100035.69;4940674;28;45954;-63
2023/12/04 04:27:35;;;;;;;;;13.75;8.50;;;;;5.88;53.01;100014.22;4943655;28;45442;-63
2023/12/04 04:30:01;;;;;;;;;8.25;6.50;;;;;5.93;53.34;100022.75;4947774;28;47406;-63
2023/12/04 04:32:26;;;;;;;;;10.00;6.50;;;;;5.89;53.29;100013.31;4944304;28;45258;-63
2023/12/04 04:34:51;;;;;;;;;7.25;6.00;;;;;5.84;53.71;100005.63;4942390;28;69208;-63
2023/12/04 04:37:16;;;;;;;;;15.00;12.00;;;;;5.84;53.91;100004.75;4942173;28;72061;-63
2023/12/04 04:39:42;;;;;;;;;8.25;7.00;;;;;5.84;54.39;99995.25;4942768;28;73886;-63
2023/12/04 04:42:07;;;;;;;;;9.25;7.00;;;;;5.84;54.31;99986.56;4944757;28;45288;-63
2023/12/04 04:44:32;;;;;;;;;9.00;6.50;;;;;5.81;55.02;99982.31;4948961;28;66882;-63
2023/12/04 04:46:58;;;;;;;;;8.25;6.00;;;;;5.79;55.17;99967.63;4941433;28;73133;-63
2023/12/04 04:49:23;;;;;;;;;8.00;4.00;;;;;5.75;55.47;99955.59;4941233;28;74314;-63
2023/12/04 04:51:48;;;;;;;;;6.75;6.75;;;;;5.73;55.84;99954.78;4942323;28;72432;-63
2023/12/04 04:54:14;;;;;;;;;7.25;6.00;;;;;5.71;56.15;99950.47;4942783;28;67232;-63
2023/12/04 04:56:39;;;;;;;;;6.75;4.00;;;;;5.70;56.45;99946.19;4955127;28;72876;-63
2023/12/04 04:59:04;;;;;;;;;8.50;6.00;;;;;5.69;56.79;99946.19;4942803;28;69768;-63
2023/12/04 05:01:30;;;;;;;;;8.25;4.50;;;;;5.63;57.11;99934.19;4942348;28;72401;-63
2023/12/04 05:03:55;;;;;;;;;6.25;4.00;;;;;5.60;57.39;99939.44;4942255;28;70805;-63
2023/12/04 05:06:22;;;;;;;;;7.00;6.00;;;;;5.56;57.51;99931.75;4942992;28;72376;-63
2023/12/04 05:08:47;;;;;;;;;6.75;2.75;;;;;5.52;57.73;99920.56;4944028;28;45536;-63
2023/12/04 05:11:14;;;;;;;;;4.00;4.00;;;;;5.51;58.10;99914.53;4945018;28;45396;-63
2023/12/04 05:13:40;;;;;;;;;5.75;5.75;;;;;5.51;58.30;99917.13;4943385;28;45377;-63
2023/12/04 05:16:05;;;;;;;;;8.75;6.50;;;;;5.52;58.73;99902.41;4947952;28;63040;-63
2023/12/04 05:18:31;;;;;;;;;6.00;6.00;;;;;5.47;58.90;99912.88;4933981;28;45397;-63
2023/12/04 05:20:56;;;;;;;;;8.25;6.00;;;;;5.41;58.91;99899.16;4937546;28;45521;-63
2023/12/04 05:23:21;;;;;;;;;10.75;6.75;;;;;5.40;59.61;99895.72;4936264;28;60467;-64
2023/12/04 05:25:47;;;;;;;;;9.00;9.00;;;;;5.41;59.42;99891.38;4942921;28;45215;-62
2023/12/04 05:28:12;;;;;;;;;9.75;6.00;;;;;5.41;59.63;99881.84;4941393;28;75037;-63
2023/12/04 05:30:37;;;;;;;;;5.00;5.00;;;;;5.42;59.75;99877.50;4941196;28;72091;-63
2023/12/04 05:33:02;;;;;;;;;11.25;7.00;;;;;5.45;60.20;99877.47;4941075;28;68603;-63
2023/12/04 05:35:28;;;;;;;;;7.25;6.00;;;;;5.47;60.09;99866.19;4942740;28;45602;-63
2023/12/04 05:37:53;;;;;;;;;9.50;7.50;;;;;5.47;60.10;99858.41;4942314;28;45529;-63
2023/12/04 05:40:19;;;;;;;;;4.50;2.75;;;;;5.46;60.34;99856.66;4941803;28;45263;-63
2023/12/04 05:42:44;;;;;;;;;8.25;6.50;;;;;5.45;60.86;99847.19;4941454;28;69339;-63
2023/12/04 05:45:09;;;;;;;;;8.75;7.25;;;;;5.46;60.86;99841.09;4940935;28;73539;-63
2023/12/04 05:47:35;;;;;;;;;7.00;5.00;;;;;5.44;61.13;99836.84;4941934;28;46297;-63
2023/12/04 05:50:01;;;;;;;;;6.00;6.00;;;;;5.38;61.95;99826.56;4942784;28;45459;-63
2023/12/04 05:52:26;;;;;;;;;5.50;4.00;;;;;5.35;61.58;99831.81;4942404;28;45472;-63
2023/12/04 05:54:51;;;;;;;;;12.00;6.00;;;;;5.32;62.27;99822.38;4940320;28;51565;-63
2023/12/04 05:57:16;;;;;;;;;9.25;7.00;;;;;5.30;62.11;99816.38;4940131;28;73088;-63
2023/12/04 05:59:42;;;;;;;;;6.00;5.50;;;;;5.30;62.01;99806.84;4940640;28;45493;-63
2023/12/04 06:02:07;;;;;;;;;5.75;4.50;;;;;5.32;64.16;99793.84;4942322;28;45253;-63
2023/12/04 06:04:33;;;;;;;;;6.25;4.50;;;;;5.30;63.58;99787.81;4940518;28;45266;-63
2023/12/04 06:06:58;;;;;;;;;7.25;4.50;;;;;5.29;63.53;99776.59;4946776;28;51835;-63
2023/12/04 06:09:23;;;;;;;;;9.75;6.50;;;;;5.30;63.19;99772.25;4941877;28;73309;-63
2023/12/04 06:11:48;;;;;;;;;4.00;4.00;;;;;5.30;63.13;99769.66;4942192;28;45365;-63
2023/12/04 06:14:14;;;;;;;;;6.00;4.00;;;;;5.29;63.22;99758.44;4940673;28;73126;-63
2023/12/04 06:16:39;;;;;;;;;6.00;3.00;;;;;5.29;62.94;99762.75;4940267;28;74951;-64
2023/12/04 06:19:04;;;;;;;;;7.50;5.75;;;;;5.26;63.24;99740.34;4942351;28;45323;-63
2023/12/04 06:21:30;;;;;;;;;7.00;6.25;;;;;5.27;63.80;99739.44;4940872;28;69282;-63
2023/12/04 06:23:56;;;;;;;;;7.50;5.00;;;;;5.26;63.77;99742.94;4941267;28;45326;-63
2023/12/04 06:26:22;;;;;;;;;7.00;3.75;;;;;5.30;64.36;99730.75;4941183;28;46266;-63
2023/12/04 06:28:48;;;;;;;;;6.50;4.50;;;;;5.30;64.46;99730.75;4947148;28;45325;-63
2023/12/04 06:31:13;;;;;;;;;3.00;3.00;;;;;5.30;64.33;99735.94;4938388;28;45233;-63
2023/12/04 06:33:39;;;;;;;;;6.00;4.25;;;;;5.31;65.04;99737.63;4940436;28;45652;-63
2023/12/04 06:36:06;;;;;;;;;6.50;3.00;;;;;5.33;64.57;99735.88;4940783;28;46016;-63
2023/12/04 06:38:33;;;;;;;;;6.50;3.50;;;;;5.32;65.44;99736.75;4941054;28;45422;-62
2023/12/04 06:40:59;;;;;;;;;4.00;4.00;;;;;5.33;65.93;99725.50;4939629;28;45334;-63
2023/12/04 06:43:24;;;;;;;;;19.00;15.75;;;;;5.33;66.63;99728.94;4940428;28;45323;-63
2023/12/04 06:45:50;;;;;;;;;7.00;4.00;;;;;5.34;66.04;99727.19;4938793;28;45959;-64
2023/12/04 06:48:16;;;;;;;;;8.50;4.00;;;;;5.33;66.15;99710.78;4942136;28;45357;-64
2023/12/04 06:50:41;;;;;;;;;8.75;4.00;;;;;5.36;66.40;99716.78;4936184;28;45377;-63
2023/12/04 06:53:07;;;;;;;;;7.75;5.50;;;;;5.40;66.16;99718.41;4933927;28;45456;-64
2023/12/04 06:55:32;;;;;;;;;7.75;3.75;;;;;5.37;66.98;99705.53;4943831;28;46322;-61
2023/12/04 06:57:57;;;;;;;;;6.75;4.00;;;;;5.35;67.85;99709.88;4949757;28;73254;-63
2023/12/04 07:00:23;;;;;;;;;7.50;4.00;;;;;5.34;67.59;99698.66;4948115;28;58395;-63
2023/12/04 07:02:49;;;;;;;;;3.25;3.25;;;;;5.32;67.37;99693.50;4969593;28;45523;-63
2023/12/04 07:05:14;;;;;;;;;10.00;6.00;;;;;5.36;67.50;99694.28;4944568;28;46266;-68
2023/12/04 07:07:40;;;;;;;;;6.75;6.00;;;;;5.38;67.75;99678.69;4953512;28;45386;-66
2023/12/04 07:10:05;;;;;;;;;8.25;5.50;;;;;5.41;67.55;99679.47;4949064;28;68198;-65
2023/12/04 07:12:31;;;;;;;;;5.75;4.50;;;;;5.43;67.57;99669.91;4946237;28;45468;-64
2023/12/04 07:14:56;;;;;;;;;3.50;3.00;;;;;5.47;67.59;99666.38;4954060;28;72020;-67
2023/12/04 07:17:22;;;;;;;;;5.00;3.25;;;;;5.49;67.23;99672.38;4947423;28;45303;-66
2023/12/04 07:19:47;;;;;;;;;4.75;4.00;;;;;5.53;67.53;99667.13;4951326;28;45345;-67
2023/12/04 07:22:12;;;;;;;;;6.50;3.00;;;;;5.54;67.83;99669.66;4946570;28;45416;-66
2023/12/04 07:24:38;;;;;;;;;6.25;4.00;;;;;5.54;67.87;99658.44;4944523;28;75044;-67
2023/12/04 07:27:04;;;;;;;;;6.50;4.50;;;;;5.57;67.98;99663.56;4943876;28;57516;-68
2023/12/04 07:29:29;;;;;;;;;6.50;3.00;;;;;5.57;67.60;99673.94;4952499;28;45418;-68
2023/12/04 07:31:54;;;;;;;;;4.50;3.00;;;;;5.58;67.54;99663.53;4942554;28;45238;-69
2023/12/04 07:34:20;;;;;;;;;4.00;4.00;;;;;5.60;68.10;99666.09;4944746;28;54119;-68
2023/12/04 07:36:45;;;;;;;;;10.25;4.00;;;;;5.61;68.25;99660.00;4938879;28;45323;-65
2023/12/04 07:39:11;;;;;;;;;6.25;4.00;;;;;5.60;68.13;99676.47;4939518;28;69429;-63
2023/12/04 07:41:36;;;;;;;;;7.00;4.50;;;;;5.60;68.39;99673.88;4940318;28;45553;-64
2023/12/04 07:44:02;;;;;;;;;7.00;7.00;;;;;5.60;68.74;99671.28;4939237;28;46316;-65
2023/12/04 07:46:28;;;;;;;;;10.00;5.50;;;;;5.59;68.53;99672.16;4943118;28;45243;-65
2023/12/04 07:48:54;;;;;;;;;4.00;3.00;;;;;5.60;68.70;99668.69;4943238;28;45522;-65
2023/12/04 07:51:19;;;;;;;;;3.25;3.00;;;;;5.60;69.08;99664.34;4936754;28;72130;-65
2023/12/04 07:53:44;;;;;;;;;3.00;3.00;;;;;5.61;69.08;99667.78;4942881;28;45265;-65
2023/12/04 07:56:11;;;;;;;;;7.50;4.50;;;;;5.60;69.09;99666.94;4944596;28;45457;-64
2023/12/04 07:58:37;;;;;;;;;2.00;1.50;;;;;5.60;69.16;99653.94;4944505;28;45278;-63
2023/12/04 08:01:02;;;;;;;;;7.00;4.00;;;;;5.61;69.69;99649.59;4944075;28;64972;-64
2023/12/04 08:03:27;;;;;;;;;6.00;6.00;;;;;5.56;69.78;99639.34;4946180;28;47045;-64
2023/12/04 08:05:53;;;;;;;;;5.25;3.50;;;;;5.61;69.79;99636.63;4948626;28;62863;-64
2023/12/04 08:08:18;;;;;;;;;4.00;4.00;;;;;5.65;69.90;99635.69;4941892;28;66457;-63
2023/12/04 08:10:44;;;;;;;;;6.00;3.25;;;;;5.65;69.90;99633.94;4940375;28;64498;-64
2023/12/04 08:13:09;;;;;;;;;6.50;3.50;;;;;5.66;69.78;99629.59;4943129;28;74479;-63
2023/12/04 08:15:34;;;;;;;;;6.25;6.00;;;;;5.69;70.19;99616.53;4941154;28;45461;-64
2023/12/04 08:18:00;;;;;;;;;4.00;4.00;;;;;5.69;70.49;99612.19;4944240;28;45369;-64
2023/12/04 08:20:26;;;;;;;;;3.25;3.25;;;;;5.73;70.46;99610.38;4943887;28;45490;-63
2023/12/04 08:22:51;;;;;;;;;4.00;4.00;;;;;5.77;70.64;99608.56;4942991;28;46949;-63
2023/12/04 08:25:16;;;;;;;;;4.25;3.00;;;;;5.81;70.50;99600.66;4943893;28;45149;-64
2023/12/04 08:27:42;;;;;;;;;6.50;3.50;;;;;5.87;70.62;99607.44;4947198;28;45402;-63
2023/12/04 08:30:08;;;;;;;;;8.25;5.50;;;;;5.87;75.15;99604.84;4945369;28;45649;-64
2023/12/04 08:32:33;;;;;;;;;3.25;2.00;;;;;5.88;72.11;99611.75;4945968;28;49256;-64
2023/12/04 08:34:59;;;;;;;;;6.50;5.00;;;;;5.86;71.89;99597.94;4943459;28;56231;-64
2023/12/04 08:37:24;;;;;;;;;9.75;7.00;;;;;5.84;72.23;99594.53;4943092;28;69357;-64
2023/12/04 08:39:49;;;;;;;;;3.00;3.00;;;;;5.86;72.16;99605.72;4943251;28;58850;-64
2023/12/04 08:42:15;;;;;;;;;5.00;4.00;;;;;5.85;72.79;99607.47;4943131;28;45524;-64
2023/12/04 08:44:40;;;;;;;;;4.00;4.00;;;;;5.86;72.58;99598.81;4941916;28;73055;-64
2023/12/04 08:47:06;;;;;;;;;7.50;4.00;;;;;5.87;72.29;99594.44;4950298;28;45343;-64
2023/12/04 08:49:32;;;;;;;;;7.00;4.00;;;;;5.93;72.12;99598.63;4943547;28;45469;-64
2023/12/04 08:51:57;;;;;;;;;3.00;3.00;;;;;5.93;72.52;99583.88;4942439;28;47129;-64
2023/12/04 08:54:23;;;;;;;;;5.50;4.50;;;;;5.97;72.31;99580.38;4943731;28;45354;-64
2023/12/04 08:56:49;;;;;;;;;3.00;3.00;;;;;6.00;72.15;99571.63;4943723;28;45461;-64
2023/12/04 08:59:14;;;;;;;;;3.50;2.00;;;;;6.01;72.14;99563.81;4941072;28;55301;-64
2023/12/04 09:01:40;;;;;;;;;6.00;4.00;;;;;6.05;72.67;99561.97;4942738;28;63509;-64
2023/12/04 09:04:07;;;;;;;;;4.25;3.00;;;;;6.08;72.02;99560.13;4940425;28;71888;-65
2023/12/04 09:06:33;;;;;;;;;6.00;3.75;;;;;6.12;72.13;99571.28;4935924;28;45537;-65
2023/12/04 09:08:58;;;;;;;;;2.50;2.50;;;;;6.16;71.99;99570.34;4942449;28;69646;-63
2023/12/04 09:11:23;;;;;;;;;4.00;3.00;;;;;6.24;71.88;99555.38;4947981;28;60642;-64
2023/12/04 09:13:49;;;;;;;;;4.00;3.00;;;;;6.33;71.87;99558.63;4943946;28;72935;-64
2023/12/04 09:16:14;;;;;;;;;7.25;3.25;;;;;6.38;72.11;99559.34;4942983;28;45283;-64
2023/12/04 09:18:39;;;;;;;;;2.00;2.00;;;;;6.41;71.68;99560.09;4941150;28;69376;-64
2023/12/04 09:21:05;;;;;;;;;3.00;2.00;;;;;6.44;71.58;99553.94;4940913;28;75319;-64
2023/12/04 09:23:30;;;;;;;;;5.75;3.25;;;;;6.47;71.75;99548.66;4939570;28;45412;-64
2023/12/04 09:25:56;;;;;;;;;6.00;4.00;;;;;6.51;71.74;99549.44;4941327;28;68206;-64
2023/12/04 09:28:21;;;;;;;;;3.50;3.50;;;;;6.52;72.28;99551.16;4942014;28;61017;-64
2023/12/04 09:30:47;;;;;;;;;3.50;3.00;;;;;6.55;71.84;99532.84;4939771;28;71322;-64
2023/12/04 09:33:13;;;;;;;;;7.50;3.00;;;;;6.55;71.68;99532.84;4944150;28;45819;-65
2023/12/04 09:35:38;;;;;;;;;4.00;2.75;;;;;6.56;71.89;99516.34;4948479;28;65578;-64
2023/12/04 09:38:04;;;;;;;;;2.00;2.00;;;;;6.58;72.00;99507.59;4941912;28;45462;-65
2023/12/04 09:40:29;;;;;;;;;4.75;2.50;;;;;6.62;72.01;99508.34;4941028;28;52013;-64
2023/12/04 09:42:55;;;;;;;;;5.00;1.75;;;;;6.65;71.81;99509.13;4940931;28;45488;-64
2023/12/04 09:45:20;;;;;;;;;4.75;3.25;;;;;6.69;72.12;99503.84;4941229;28;45482;-65
2023/12/04 09:47:47;;;;;;;;;3.50;3.00;;;;;6.70;71.92;99501.19;4925237;28;45380;-64
2023/12/04 09:50:14;;;;;;;;;3.50;2.50;;;;;6.71;71.85;99494.22;4935250;28;45426;-64
2023/12/04 09:52:40;;;;;;;;;5.25;2.25;;;;;6.77;72.07;99500.09;4940607;28;45196;-65
2023/12/04 09:55:05;;;;;;;;;6.25;3.00;;;;;6.81;72.00;99493.06;4939617;28;45535;-64
2023/12/04 09:57:31;;;;;;;;;6.00;3.00;;;;;6.81;72.31;99480.88;4941382;28;46758;-66
2023/12/04 09:59:59;;;;;;;;;4.50;3.00;;;;;6.87;72.04;99489.41;4947896;28;65368;-67
2023/12/04 10:02:24;;;;;;;;;3.25;3.00;;;;;6.95;71.98;99477.00;4944527;28;45452;-66
2023/12/04 10:04:50;;;;;;;;;5.00;3.50;;;;;7.00;72.08;99465.56;4928107;28;68211;-68
2023/12/04 10:07:15;;;;;;;;;2.75;2.75;;;;;7.06;71.86;99459.28;4939454;28;73009;-68
2023/12/04 10:09:41;;;;;;;;;7.25;3.00;;;;;7.07;71.51;99466.22;4941153;28;46030;-66
2023/12/04 10:12:07;;;;;;;;;4.75;3.00;;;;;7.07;71.90;99454.97;4941694;28;46064;-65
2023/12/04 10:14:32;;;;;;;;;5.25;4.00;;;;;7.03;72.23;99449.00;4942875;28;45322;-66
2023/12/04 10:16:57;;;;;;;;;4.75;4.00;;;;;7.00;72.64;99446.50;4946638;28;69523;-62
2023/12/04 10:19:28;;;;;;;;;7.75;4.50;;;;;7.03;72.55;99431.66;4944834;28;45405;-63
2023/12/04 10:21:56;;;;;;;;;5.25;3.50;;;;;7.10;72.54;99428.81;4943706;28;45817;-64
2023/12/04 10:24:27;;;;;;;;;7.50;4.00;;;;;7.18;72.71;99422.47;4943397;28;45447;-61
2023/12/04 10:26:52;;;;;;;;;4.50;3.25;;;;;7.27;72.44;99434.31;4942764;28;45425;-63
2023/12/04 10:29:18;;;;;;;;;4.00;4.00;;;;;7.37;72.44;99424.44;4941937;28;59221;-64
2023/12/04 10:31:43;;;;;;;;;4.25;3.00;;;;;7.41;72.51;99433.84;4938886;28;68401;-64
2023/12/04 10:34:12;;;;;;;;;7.00;4.00;;;;;7.45;72.33;99429.38;4941286;28;45431;-64
2023/12/04 10:36:39;;;;;;;;;4.50;4.00;;;;;7.50;72.35;99422.25;4941825;28;45397;-63
2023/12/04 10:39:04;;;;;;;;;3.50;3.00;;;;;7.55;72.36;99420.34;4941335;28;48265;-64
2023/12/04 10:41:31;;;;;;;;;7.00;3.00;;;;;7.63;72.04;99420.03;4947049;28;45441;-64
2023/12/04 10:43:57;;;;;;;;;6.00;4.00;;;;;7.71;72.31;99423.22;4946477;28;46048;-63
2023/12/04 10:46:24;;;;;;;;;4.00;4.00;;;;;7.78;72.21;99402.09;4939976;28;45527;-64
2023/12/04 10:48:49;;;;;;;;;4.00;3.25;;;;;7.92;72.13;99396.38;4941982;28;45508;-65
2023/12/04 10:51:17;;;;;;;;;5.50;3.00;;;;;8.01;71.79;99391.75;4923941;28;72861;-65
2023/12/04 10:53:42;;;;;;;;;5.00;4.00;;;;;8.15;71.97;99384.25;4944043;28;45413;-64
2023/12/04 10:56:20;;;;;;;;;4.50;4.00;;;;;8.27;71.79;99377.69;4942840;28;45715;-67
2023/12/04 10:58:49;;;;;;;;;6.50;4.75;;;;;8.34;71.56;99372.19;4967245;28;47515;-64
2023/12/04 11:01:17;;;;;;;;;4.00;4.00;;;;;8.43;71.39;99359.72;4941199;28;45445;-62
2023/12/04 11:03:48;;;;;;;;;5.00;5.00;;;;;8.53;71.20;99356.69;4942284;28;45219;-62
2023/12/04 11:06:16;;;;;;;;;4.00;4.00;;;;;8.62;71.20;99342.41;4939190;28;45406;-63
2023/12/04 11:08:42;;;;;;;;;4.75;4.75;;;;;8.73;71.08;99345.44;4940509;28;46395;-62
2023/12/04 11:11:16;;;;;;;;;7.75;3.25;;;;;8.82;70.53;99327.69;4940221;28;45392;-63
2023/12/04 11:13:42;;;;;;;;;7.75;5.75;;;;;8.87;70.53;99325.72;4925025;28;45374;-63
2023/12/04 11:16:33;;;;;;;;;9.50;4.25;;;;;8.92;70.48;99310.72;4938451;28;46383;-64
2023/12/04 11:19:18;;;;;;;;;8.75;6.00;;;;;8.96;70.31;99301.88;4940130;28;45454;-63
2023/12/04 11:21:46;;;;;;;;;5.00;5.00;;;;;8.95;70.11;99299.34;4934617;28;45335;-63
2023/12/04 11:24:12;;;;;;;;;9.00;5.00;;;;;8.87;70.13;99292.69;4940625;28;45360;-63
2023/12/04 11:26:38;;;;;;;;;9.50;4.25;;;;;8.82;70.02;99292.03;4941716;28;45311;-63
2023/12/04 11:29:04;;;;;;;;;4.75;3.25;;;;;8.80;70.44;99282.56;4940720;28;46163;-64